createdAt,value
2023-04-02T00:00:59.074Z,9.88
2023-04-02T00:03:26.471Z,9.89
2023-04-02T00:05:56.186Z,9.76
2023-04-02T00:08:26.838Z,9.65
2023-04-02T00:10:55.184Z,9.78
2023-04-02T00:13:25.551Z,9.89
2023-04-02T00:15:56.966Z,9.83
2023-04-02T00:18:25.300Z,9.77
2023-04-02T00:20:54.532Z,9.83
2023-04-02T00:23:21.776Z,9.78
2023-04-02T00:25:50.795Z,9.53
2023-04-02T00:28:19.241Z,9.41
2023-04-02T00:30:47.739Z,9.39
2023-04-02T00:33:16.860Z,9.05
2023-04-02T00:35:44.209Z,9.23
2023-04-02T00:38:18.706Z,9.32
2023-04-02T00:40:46.938Z,9.19
2023-04-02T00:43:17.039Z,9.24
2023-04-02T00:45:51.140Z,9.40
2023-04-02T00:48:26.974Z,9.30
2023-04-02T00:50:55.420Z,9.20
2023-04-02T00:53:25.007Z,9.26
2023-04-02T00:55:52.659Z,9.05
2023-04-02T00:58:26.199Z,8.93
2023-04-02T01:00:53.966Z,8.85
2023-04-02T01:03:35.120Z,8.88
2023-04-02T01:06:10.792Z,8.91
2023-04-02T01:08:44.914Z,8.72
2023-04-02T01:11:18.186Z,8.54
2023-04-02T01:13:52.506Z,8.83
2023-04-02T01:16:23.654Z,8.87
2023-04-02T01:18:53.945Z,8.56
2023-04-02T01:21:42.222Z,8.80
2023-04-02T01:24:10.316Z,8.87
2023-04-02T01:26:45.634Z,8.76
2023-04-02T01:29:15.074Z,8.76
2023-04-02T01:31:42.950Z,8.52
2023-04-02T01:34:13.048Z,8.30
2023-04-02T01:36:42.219Z,8.43
2023-04-02T01:39:13.214Z,8.36
2023-04-02T01:41:43.059Z,8.37
2023-04-02T01:44:12.075Z,8.46
2023-04-02T01:46:42.950Z,8.34
2023-04-02T01:49:12.651Z,8.37
2023-04-02T01:51:43.048Z,8.27
2023-04-02T01:54:10.564Z,8.02
2023-04-02T01:56:37.850Z,7.87
2023-04-02T01:59:05.910Z,7.82
2023-04-02T02:01:36.410Z,7.84
2023-04-02T02:04:05.897Z,7.75
2023-04-02T02:06:33.275Z,7.92
2023-04-02T02:09:03.463Z,8.02
2023-04-02T02:11:31.724Z,8.00
2023-04-02T02:14:00.279Z,7.64
2023-04-02T02:16:28.850Z,7.64
2023-04-02T02:18:57.306Z,7.60
2023-04-02T02:21:29.789Z,7.40
2023-04-02T02:23:57.836Z,7.65
2023-04-02T02:26:27.167Z,7.41
2023-04-02T02:28:57.544Z,7.50
2023-04-02T02:31:28.627Z,7.67
2023-04-02T02:33:58.944Z,7.60
2023-04-02T02:36:30.701Z,7.32
2023-04-02T02:38:59.062Z,7.50
2023-04-02T02:41:31.120Z,7.51
2023-04-02T02:44:01.885Z,7.61
2023-04-02T02:46:29.995Z,7.67
2023-04-02T02:48:58.537Z,7.55
2023-04-02T02:51:28.342Z,7.58
2023-04-02T02:53:58.890Z,7.70
2023-04-02T02:56:26.825Z,7.62
2023-04-02T02:58:54.538Z,7.18
2023-04-02T03:01:21.927Z,7.38
2023-04-02T03:03:50.775Z,7.49
2023-04-02T03:06:20.589Z,7.35
2023-04-02T03:08:52.460Z,7.16
2023-04-02T03:11:26.385Z,7.12
2023-04-02T03:13:56.794Z,6.79
2023-04-02T03:16:26.804Z,6.94
2023-04-02T03:18:56.593Z,7.18
2023-04-02T03:21:28.817Z,6.99
2023-04-02T03:23:58.548Z,6.97
2023-04-02T03:26:31.324Z,7.10
2023-04-02T03:29:00.832Z,6.93
2023-04-02T03:31:32.146Z,7.03
2023-04-02T03:34:00.512Z,6.93
2023-04-02T03:36:29.615Z,6.94
2023-04-02T03:39:00.984Z,6.86
2023-04-02T03:41:32.757Z,6.94
2023-04-02T03:44:02.197Z,6.81
2023-04-02T03:46:32.644Z,6.82
2023-04-02T03:49:01.907Z,6.79
2023-04-02T03:51:31.601Z,6.89
2023-04-02T03:53:59.059Z,6.64
2023-04-02T03:56:29.265Z,6.86
2023-04-02T03:59:07.262Z,6.76
2023-04-02T04:01:38.273Z,6.66
2023-04-02T04:04:07.818Z,6.29
2023-04-02T04:06:36.124Z,6.59
2023-04-02T04:09:08.678Z,6.72
2023-04-02T04:11:37.515Z,6.71
2023-04-02T04:14:08.348Z,6.60
2023-04-02T04:16:42.798Z,6.67
2023-04-02T04:19:18.092Z,6.46
2023-04-02T04:21:47.024Z,6.29
2023-04-02T04:24:20.140Z,6.60
2023-04-02T04:26:49.553Z,6.39
2023-04-02T04:29:27.055Z,6.55
2023-04-02T04:31:55.511Z,6.57
2023-04-02T04:34:25.425Z,6.41
2023-04-02T04:37:01.537Z,6.27
2023-04-02T04:39:31.618Z,6.26
2023-04-02T04:42:01.922Z,6.29
2023-04-02T04:44:37.844Z,6.42
2023-04-02T04:47:08.950Z,6.59
2023-04-02T04:49:40.308Z,6.04
2023-04-02T04:52:09.996Z,5.85
2023-04-02T04:54:38.681Z,6.13
2023-04-02T04:57:07.411Z,6.17
2023-04-02T04:59:40.848Z,5.92
2023-04-02T05:02:11.706Z,6.03
2023-04-02T05:04:40.205Z,5.94
2023-04-02T05:07:10.500Z,6.03
2023-04-02T05:09:39.180Z,5.98
2023-04-02T05:12:10.880Z,6.02
2023-04-02T05:14:43.189Z,6.05
2023-04-02T05:17:14.815Z,6.12
2023-04-02T05:19:44.404Z,5.93
2023-04-02T05:22:18.465Z,5.88
2023-04-02T05:24:51.257Z,5.89
2023-04-02T05:27:26.211Z,5.80
2023-04-02T05:30:00.131Z,5.86
2023-04-02T05:32:29.252Z,6.04
2023-04-02T05:34:57.870Z,5.99
2023-04-02T05:37:27.237Z,6.05
2023-04-02T05:39:56.944Z,6.08
2023-04-02T05:42:25.496Z,5.62
2023-04-02T05:45:02.855Z,5.48
2023-04-02T05:47:32.117Z,5.80
2023-04-02T05:50:13.125Z,5.89
2023-04-02T05:52:43.640Z,5.75
2023-04-02T05:55:28.208Z,5.79
2023-04-02T05:58:17.651Z,5.78
2023-04-02T06:01:04.157Z,5.83
2023-04-02T06:03:39.249Z,5.47
2023-04-02T06:06:14.641Z,5.68
2023-04-02T06:08:43.564Z,5.70
2023-04-02T06:11:12.084Z,5.54
2023-04-02T06:13:39.522Z,5.38
2023-04-02T06:16:07.305Z,5.42
2023-04-02T06:18:36.947Z,5.31
2023-04-02T06:21:05.926Z,5.39
2023-04-02T06:23:36.920Z,5.22
2023-04-02T06:26:05.693Z,5.05
2023-04-02T06:28:36.218Z,5.27
2023-04-02T06:31:07.437Z,5.35
2023-04-02T06:33:36.412Z,5.21
2023-04-02T06:36:04.844Z,5.38
2023-04-02T06:38:33.078Z,5.34
2023-04-02T06:41:02.163Z,5.41
2023-04-02T06:43:35.642Z,5.41
2023-04-02T06:46:06.917Z,5.32
2023-04-02T06:48:38.214Z,5.17
2023-04-02T06:51:07.460Z,5.16
2023-04-02T06:53:36.850Z,5.29
2023-04-02T06:56:05.025Z,5.34
2023-04-02T06:58:32.737Z,5.29
2023-04-02T07:01:00.113Z,5.19
2023-04-02T07:03:28.501Z,5.44
2023-04-02T07:05:57.640Z,5.43
2023-04-02T07:08:25.246Z,5.48
2023-04-02T07:10:52.576Z,5.39
2023-04-02T07:13:20.959Z,5.41
2023-04-02T07:15:49.622Z,5.50
2023-04-02T07:18:22.814Z,5.51
2023-04-02T07:20:52.043Z,5.21
2023-04-02T07:23:21.270Z,5.05
2023-04-02T07:25:48.901Z,5.39
2023-04-02T07:28:16.720Z,5.08
2023-04-02T07:30:44.114Z,5.02
2023-04-02T07:33:13.710Z,5.34
2023-04-02T07:35:41.396Z,5.49
2023-04-02T07:38:08.870Z,5.49
2023-04-02T07:40:37.485Z,5.65
2023-04-02T07:43:05.306Z,5.48
2023-04-02T07:45:33.030Z,5.50
2023-04-02T07:48:04.997Z,5.46
2023-04-02T07:50:32.315Z,5.31
2023-04-02T07:52:59.680Z,5.57
2023-04-02T07:55:26.965Z,5.54
2023-04-02T07:57:56.225Z,5.54
2023-04-02T08:00:23.925Z,5.62
2023-04-02T08:02:51.547Z,5.64
2023-04-02T08:05:19.376Z,5.65
2023-04-02T08:07:53.006Z,5.38
2023-04-02T08:10:20.609Z,5.30
2023-04-02T08:12:47.873Z,5.35
2023-04-02T08:15:16.920Z,5.26
2023-04-02T08:17:44.472Z,5.42
2023-04-02T08:20:15.200Z,5.61
2023-04-02T08:22:42.454Z,5.72
2023-04-02T08:25:10.495Z,5.62
2023-04-02T08:27:38.121Z,5.48
2023-04-02T08:30:06.758Z,5.51
2023-04-02T08:32:35.586Z,5.49
2023-04-02T08:35:02.975Z,5.59
2023-04-02T08:37:30.454Z,5.70
2023-04-02T08:39:57.726Z,5.40
2023-04-02T08:42:30.451Z,5.45
2023-04-02T08:45:24.390Z,5.26
2023-04-02T08:47:56.016Z,5.55
2023-04-02T08:50:29.290Z,5.65
2023-04-02T08:52:57.280Z,5.60
2023-04-02T08:55:30.010Z,5.72
2023-04-02T08:58:02.635Z,5.92
2023-04-02T09:00:35.625Z,5.99
2023-04-02T09:03:09.258Z,5.80
2023-04-02T09:05:40.004Z,5.93
2023-04-02T09:08:17.288Z,5.58
2023-04-02T09:10:50.574Z,5.19
2023-04-02T09:13:22.274Z,5.30
2023-04-02T09:15:50.501Z,5.31
2023-04-02T09:18:20.113Z,5.59
2023-04-02T09:20:49.257Z,5.62
2023-04-02T09:23:17.957Z,5.81
2023-04-02T09:25:51.197Z,5.51
2023-04-02T09:28:28.743Z,5.99
2023-04-02T09:31:07.114Z,5.80
2023-04-02T09:33:46.846Z,6.16
2023-04-02T09:36:27.045Z,5.71
2023-04-02T09:39:02.019Z,5.18
2023-04-02T09:41:30.110Z,5.23
2023-04-02T09:44:13.464Z,5.27
2023-04-02T09:46:48.278Z,4.87
2023-04-02T09:49:18.877Z,5.07
2023-04-02T09:51:46.187Z,5.08
2023-04-02T09:54:16.867Z,5.01
2023-04-02T09:57:00.736Z,4.81
2023-04-02T09:59:28.076Z,4.76
2023-04-02T10:02:00.613Z,5.19
2023-04-02T10:04:44.048Z,5.21
2023-04-02T10:07:30.728Z,5.23
2023-04-02T10:09:58.965Z,4.81
2023-04-02T10:12:27.593Z,5.25
2023-04-02T10:14:57.920Z,5.03
2023-04-02T10:17:28.623Z,5.21
2023-04-02T10:19:59.671Z,5.55
2023-04-02T10:22:29.110Z,5.49
2023-04-02T10:24:56.449Z,5.75
2023-04-02T10:27:29.462Z,5.54
2023-04-02T10:30:03.932Z,5.39
2023-04-02T10:32:33.240Z,5.42
2023-04-02T10:35:03.236Z,5.26
2023-04-02T10:37:49.442Z,5.62
2023-04-02T10:40:20.142Z,5.82
2023-04-02T10:42:53.654Z,5.81
2023-04-02T10:45:24.778Z,5.68
2023-04-02T10:47:54.918Z,5.58
2023-04-02T10:50:31.183Z,5.97
2023-04-02T10:53:03.412Z,5.78
2023-04-02T10:55:33.012Z,5.88
2023-04-02T10:58:04.632Z,6.18
2023-04-02T11:00:34.470Z,6.16
2023-04-02T11:03:06.061Z,6.37
2023-04-02T11:05:40.331Z,6.34
2023-04-02T11:08:12.749Z,6.34
2023-04-02T11:10:44.031Z,6.13
2023-04-02T11:13:16.377Z,5.82
2023-04-02T11:15:43.920Z,5.59
2023-04-02T11:18:22.751Z,5.76
2023-04-02T11:20:58.706Z,5.83
2023-04-02T11:23:28.290Z,5.83
2023-04-02T11:26:10.500Z,6.01
2023-04-02T11:28:37.782Z,5.91
2023-04-02T11:31:05.200Z,5.69
2023-04-02T11:33:44.771Z,5.72
2023-04-02T11:36:31.448Z,5.89
2023-04-02T11:39:10.833Z,5.75
2023-04-02T11:41:59.092Z,5.55
2023-04-02T11:44:26.403Z,5.80
2023-04-02T11:46:53.727Z,5.89
2023-04-02T11:49:54.176Z,5.99
2023-04-02T11:52:23.484Z,5.90
2023-04-02T11:55:02.833Z,6.02
2023-04-02T11:57:38.408Z,6.20
2023-04-02T12:00:18.436Z,6.29
2023-04-02T12:02:54.769Z,6.34
2023-04-02T12:05:28.039Z,6.40
2023-04-02T12:08:05.226Z,6.69
2023-04-02T12:10:35.947Z,6.78
2023-04-02T12:13:03.796Z,6.77
2023-04-02T12:15:43.172Z,6.59
2023-04-02T12:18:18.245Z,6.83
2023-04-02T12:20:50.933Z,6.95
2023-04-02T12:23:20.304Z,6.69
2023-04-02T12:28:48.549Z,6.32
2023-04-02T12:31:17.915Z,6.48
2023-04-02T12:33:53.253Z,6.57
2023-04-02T12:36:22.265Z,6.76
2023-04-02T12:38:52.057Z,7.12
2023-04-02T12:41:27.044Z,6.83
2023-04-02T12:46:52.045Z,7.08
2023-04-02T12:49:26.487Z,7.44
2023-04-02T12:51:55.877Z,7.41
2023-04-02T12:54:34.260Z,7.66
2023-04-02T12:57:18.037Z,7.52
2023-04-02T12:59:48.144Z,6.69
2023-04-02T13:02:20.806Z,6.93
2023-04-02T13:04:48.809Z,7.04
2023-04-02T13:07:17.778Z,7.15
2023-04-02T13:09:46.404Z,7.38
2023-04-02T13:12:25.245Z,7.18
2023-04-02T13:14:54.996Z,7.41
2023-04-02T13:17:38.326Z,7.22
2023-04-02T13:20:24.441Z,7.25
2023-04-02T13:22:51.768Z,7.35
2023-04-02T13:25:22.588Z,7.48
2023-04-02T13:27:49.865Z,7.38
2023-04-02T13:30:22.589Z,7.43
2023-04-02T13:32:50.397Z,7.38
2023-04-02T13:35:17.729Z,7.57
2023-04-02T13:37:45.070Z,7.65
2023-04-02T13:40:14.119Z,7.79
2023-04-02T13:42:42.483Z,7.80
2023-04-02T13:45:17.693Z,7.78
2023-04-02T13:47:46.331Z,7.96
2023-04-02T13:50:18.551Z,8.09
2023-04-02T13:52:46.454Z,7.59
2023-04-02T13:55:15.232Z,7.55
2023-04-02T13:57:42.566Z,7.27
2023-04-02T14:00:10.777Z,7.33
2023-04-02T14:02:43.361Z,7.34
2023-04-02T14:05:18.638Z,7.38
2023-04-02T14:07:53.055Z,7.18
2023-04-02T14:10:23.449Z,6.83
2023-04-02T14:12:59.475Z,6.45
2023-04-02T14:15:34.736Z,6.81
2023-04-02T14:18:14.836Z,6.94
2023-04-02T14:20:51.970Z,6.56
2023-04-02T14:23:26.680Z,6.69
2023-04-02T14:25:58.310Z,6.94
2023-04-02T14:28:31.170Z,6.85
2023-04-02T14:31:03.069Z,6.65
2023-04-02T14:33:36.690Z,6.43
2023-04-02T14:36:13.440Z,6.41
2023-04-02T14:38:45.030Z,6.29
2023-04-02T14:41:16.500Z,6.30
2023-04-02T14:43:46.838Z,6.45
2023-04-02T14:46:17.584Z,6.48
2023-04-02T14:48:50.246Z,6.46
2023-04-02T14:51:24.454Z,6.74
2023-04-02T14:53:56.393Z,6.66
2023-04-02T14:56:24.966Z,6.72
2023-04-02T14:58:55.559Z,6.67
2023-04-02T15:01:24.122Z,6.58
2023-04-02T15:03:55.497Z,6.60
2023-04-02T15:06:25.491Z,6.42
2023-04-02T15:09:08.489Z,6.21
2023-04-02T15:11:38.102Z,6.26
2023-04-02T15:14:07.859Z,6.12
2023-04-02T15:16:36.417Z,6.34
2023-04-02T15:19:05.069Z,6.60
2023-04-02T15:21:55.835Z,6.60
2023-04-02T15:24:31.633Z,6.57
2023-04-02T15:27:09.347Z,6.86
2023-04-02T15:29:44.662Z,6.65
2023-04-02T15:32:18.376Z,6.65
2023-04-02T15:34:51.420Z,6.63
2023-04-02T15:37:24.367Z,6.60
2023-04-02T15:40:00.807Z,6.34
2023-04-02T15:42:30.156Z,6.20
2023-04-02T15:45:06.229Z,6.18
2023-04-02T15:47:38.287Z,6.34
2023-04-02T15:50:15.516Z,6.58
2023-04-02T15:52:52.526Z,6.76
2023-04-02T15:55:23.556Z,6.64
2023-04-02T15:58:05.516Z,6.56
2023-04-02T16:00:34.267Z,6.62
2023-04-02T16:03:12.735Z,6.83
2023-04-02T16:05:43.496Z,6.62
2023-04-02T16:08:20.330Z,6.62
2023-04-02T16:10:47.851Z,6.61
2023-04-02T16:13:18.640Z,6.72
2023-04-02T16:15:48.691Z,6.84
2023-04-02T16:18:18.980Z,7.07
2023-04-02T16:20:48.087Z,6.97
2023-04-02T16:23:18.385Z,6.96
2023-04-02T16:25:53.634Z,7.06
2023-04-02T16:28:24.840Z,6.96
2023-04-02T16:30:56.539Z,7.05
2023-04-02T16:33:29.122Z,7.26
2023-04-02T16:36:01.789Z,7.23
2023-04-02T16:38:38.822Z,7.39
2023-04-02T16:41:10.511Z,7.18
2023-04-02T16:43:44.585Z,7.29
2023-04-02T16:46:28.177Z,7.20
2023-04-02T16:49:03.888Z,7.55
2023-04-02T16:51:38.086Z,7.17
2023-04-02T16:54:11.308Z,7.32
2023-04-02T16:56:46.687Z,7.19
2023-04-02T16:59:18.956Z,6.76
2023-04-02T17:01:51.572Z,7.00
2023-04-02T17:04:26.922Z,6.92
2023-04-02T17:06:58.161Z,6.98
2023-04-02T17:09:32.062Z,6.93
2023-04-02T17:12:04.440Z,6.87
2023-04-02T17:14:35.823Z,6.72
2023-04-02T17:17:07.501Z,7.13
2023-04-02T17:19:35.604Z,7.23
2023-04-02T17:22:07.494Z,7.28
2023-04-02T17:24:39.469Z,7.27
2023-04-02T17:27:12.892Z,6.94
2023-04-02T17:29:42.676Z,7.01
2023-04-02T17:32:15.506Z,6.88
2023-04-02T17:34:42.759Z,6.94
2023-04-02T17:37:16.549Z,7.08
2023-04-02T17:39:50.388Z,7.14
2023-04-02T17:42:21.707Z,6.91
2023-04-02T17:44:54.684Z,6.93
2023-04-02T17:47:23.333Z,7.06
2023-04-02T17:50:00.713Z,6.99
2023-04-02T17:52:30.804Z,7.00
2023-04-02T17:55:04.370Z,7.06
2023-04-02T17:57:48.267Z,6.74
2023-04-02T18:00:30.385Z,6.95
2023-04-02T18:03:10.338Z,6.92
2023-04-02T18:05:39.681Z,7.00
2023-04-02T18:08:14.391Z,7.15
2023-04-02T18:10:47.535Z,7.07
2023-04-02T18:13:22.144Z,6.93
2023-04-02T18:15:56.333Z,6.73
2023-04-02T18:18:36.912Z,6.62
2023-04-02T18:21:07.796Z,6.55
2023-04-02T18:23:39.817Z,6.41
2023-04-02T18:26:13.413Z,6.59
2023-04-02T18:28:49.320Z,6.59
2023-04-02T18:31:20.492Z,6.46
2023-04-02T18:33:58.187Z,6.59
2023-04-02T18:36:27.922Z,6.66
2023-04-02T18:39:00.125Z,6.60
2023-04-02T18:41:38.476Z,6.42
2023-04-02T18:44:14.529Z,6.51
2023-04-02T18:46:45.904Z,6.56
2023-04-02T18:49:20.791Z,6.44
2023-04-02T18:51:50.020Z,6.53
2023-04-02T18:54:19.271Z,6.69
2023-04-02T18:56:48.185Z,6.75
2023-04-02T18:59:26.555Z,6.58
2023-04-02T19:01:55.501Z,6.62
2023-04-02T19:04:26.222Z,6.51
2023-04-02T19:06:55.553Z,6.59
2023-04-02T19:09:24.261Z,6.42
2023-04-02T19:11:53.057Z,6.46
2023-04-02T19:14:21.249Z,6.39
2023-04-02T19:16:59.722Z,6.43
2023-04-02T19:19:27.897Z,6.38
2023-04-02T19:22:02.478Z,6.48
2023-04-02T19:24:36.989Z,6.55
2023-04-02T19:27:08.020Z,6.67
2023-04-02T19:29:43.034Z,6.72
2023-04-02T19:32:15.695Z,6.47
2023-04-02T19:34:46.376Z,6.40
2023-04-02T19:37:16.765Z,6.34
2023-04-02T19:39:52.737Z,6.31
2023-04-02T19:42:24.239Z,6.33
2023-04-02T19:44:52.738Z,6.31
2023-04-02T19:47:21.011Z,6.31
2023-04-02T19:49:48.317Z,6.20
2023-04-02T19:52:15.700Z,6.39
2023-04-02T19:54:42.975Z,6.41
2023-04-02T19:57:13.112Z,6.43
2023-04-02T19:59:41.746Z,6.27
2023-04-02T20:02:10.335Z,6.35
2023-04-02T20:04:37.792Z,6.37
2023-04-02T20:07:05.559Z,6.24
2023-04-02T20:09:32.824Z,6.36
2023-04-02T20:12:00.155Z,6.36
2023-04-02T20:14:27.471Z,6.34
2023-04-02T20:16:56.231Z,6.28
2023-04-02T20:19:26.380Z,6.33
2023-04-02T20:21:53.653Z,6.31
2023-04-02T20:24:20.934Z,6.28
2023-04-02T20:26:48.263Z,6.30
2023-04-02T20:29:15.678Z,6.24
2023-04-02T20:31:42.943Z,6.25
2023-04-02T20:34:11.955Z,6.13
2023-04-02T20:36:39.441Z,6.38
2023-04-02T20:39:09.082Z,6.31
2023-04-02T20:41:36.477Z,6.25
2023-04-02T20:44:03.919Z,6.16
2023-04-02T21:01:10.600Z,6.07
2023-04-02T21:03:39.717Z,6.19
2023-04-02T21:06:07.675Z,6.19
2023-04-02T21:08:35.154Z,6.10
2023-04-02T21:11:03.408Z,6.01
2023-04-02T21:13:31.344Z,6.06
2023-04-02T21:15:58.953Z,6.24
2023-04-02T21:18:27.564Z,6.21
2023-04-02T21:20:59.601Z,6.09
2023-04-02T21:23:27.286Z,6.03
2023-04-02T21:25:58.439Z,5.89
2023-04-02T21:28:25.992Z,5.89
2023-04-02T21:30:53.431Z,5.82
2023-04-02T21:33:20.766Z,5.86
2023-04-02T21:35:50.547Z,5.77
2023-04-02T21:38:17.855Z,5.91
2023-04-02T21:40:45.269Z,6.04
2023-04-02T21:43:12.565Z,5.84
2023-04-02T21:45:39.846Z,5.82
2023-04-02T21:48:07.261Z,5.86
2023-04-02T21:50:34.726Z,5.85
2023-04-02T21:53:03.893Z,5.89
2023-04-02T21:55:31.162Z,5.86
2023-04-02T21:57:58.422Z,6.02
2023-04-02T22:00:26.444Z,5.63
2023-04-02T22:02:53.758Z,5.94
2023-04-02T22:05:21.128Z,5.78
2023-04-02T22:07:48.418Z,5.87
2023-04-02T22:10:17.467Z,5.84
2023-04-02T22:12:44.757Z,5.70
2023-04-02T22:15:12.413Z,5.90
2023-04-02T22:17:39.709Z,5.90
2023-04-02T22:20:07.518Z,5.72
2023-04-02T22:22:34.794Z,5.59
2023-04-02T22:25:03.063Z,5.49
2023-04-02T22:27:31.667Z,5.52
2023-04-02T22:29:58.918Z,5.69
2023-04-02T22:32:26.245Z,5.78
2023-04-02T22:34:53.881Z,5.51
2023-04-02T22:37:21.158Z,5.36
2023-04-02T22:39:48.436Z,5.58
2023-04-02T22:42:15.695Z,5.65
2023-04-02T22:44:44.273Z,5.40
2023-04-02T22:47:11.574Z,5.47
2023-04-02T22:49:38.828Z,5.57
2023-04-02T22:52:06.851Z,5.29
2023-04-02T22:54:34.100Z,5.38
2023-04-02T22:57:01.619Z,5.23
2023-04-02T22:59:28.911Z,5.41
2023-04-02T23:01:57.539Z,5.25
2023-04-02T23:04:24.859Z,5.26
2023-04-02T23:06:52.903Z,5.28
2023-04-02T23:09:20.160Z,5.12
2023-04-02T23:11:47.413Z,5.28
2023-04-02T23:14:14.713Z,5.38
2023-04-02T23:16:41.990Z,5.25
2023-04-02T23:19:10.727Z,5.13
2023-04-02T23:21:38.061Z,5.13
2023-04-02T23:24:05.421Z,4.98
2023-04-02T23:26:32.942Z,5.06
2023-04-02T23:29:02.359Z,5.00
2023-04-02T23:31:29.862Z,5.14
2023-04-02T23:33:57.490Z,4.94
2023-04-02T23:36:26.959Z,4.89
2023-04-02T23:38:55.422Z,4.97
2023-04-02T23:41:23.698Z,4.94
2023-04-02T23:43:51.089Z,4.91
2023-04-02T23:46:18.412Z,4.87
2023-04-02T23:48:46.631Z,4.69
2023-04-02T23:51:14.045Z,4.67
2023-04-02T23:53:43.200Z,4.47
2023-04-02T23:56:10.579Z,4.51
2023-04-02T23:58:37.922Z,4.55
